Fort Pierce, FL

2:06 PM EDT on September 05, 2015 (GMT -0400)
Saint Lucie County International | | Change Station
CLOSE
Current Station
Airport
Location: Ft Pierce,
Elevation: 23 ft
Nearby Weather Stations

Elev 23 ft 27.50 °N, 80.38 °W | Updated 13 minutes ago

Partly Cloudy
Partly Cloudy
86 °F
Feels Like 95 °F
N
8
Wind Variable Wind from ENE

Today
High -- | Low -- °F
--% Chance of Precip.
Yesterday
High -- | Low -- °F
Precip. -- in
7:02 AM 7:37 PM
Waning Gibbous, 46% visible
Pressure 29.99 in
Visibility 10.0 miles
Clouds Few 2400 ft
Heat Index 95 °F
Dew Point 75 °F
Humidity 70%
Rainfall 0.00 in
Snow Depth Not available.
UV 13 out of 12
Pollen 2.00 out of 12
Air Quality Not available.
Flu Activity Not available.
METAR KFPR 051753Z 07007KT 10SM FEW024 30/24 A2998 RMK AO2 SLP153 T03000239 10322 20239 58013
Pressure 29.99 in
Visibility 10.0 miles
Clouds Few 2400 ft
Heat Index 95 °F
Dew Point 75 °F
Humidity 70%
Rainfall 0.00 in
Snow Depth Not available.
UV 13 out of 12
Pollen 2.00 out of 12
Air Quality Not available.
Flu Activity Not available.
METAR KFPR 051753Z 07007KT 10SM FEW024 30/24 A2998 RMK AO2 SLP153 T03000239 10322 20239 58013
Nowcast | as of 10:12 am EDT on September 5, 2015

Scattered lightning storms are expected to develop just inland from the coast through early afternoon as the East Coast sea breeze develops. Slow storm motion toward the south at 10 mph will produce locally heavy rainfall which will cause temporary minor flooding of low lying and poor drainage areas. Storm coverage will increase this afternoon over the interior from Lake County southward across the Orlando Metro to Okeechobee. Dangerous lightning strikes will be the primary threat. Additional details...including graphics are available online at: http://www.Srh.NOAA.Gov/mlb/blog.Php

×

10-Day Weather Forecast

×

Almanac

Astronomy

Sep. 05, 2015 Rise Set
Actual Time
Civil Twilight
Nautical Twilight
Astronomical Twilight
Moon
Length of Visible Light
Length of Day
Tomorrow will be .
, % of the Moon is Illuminated

Today's Extremes

State Highs State Lows

Community

WunderPhotos

Upload Photos

1,852,510 photos uploaded!

WunderBlogs® & News

Nearby

Air Quality

  Air Quality AQ Index Pollutant
Not available.

Snow Depth

Station Depth Elevation

Earthquake Activity

City Distance Mag. Time & Date
Minimum magnitude displayed is 2.5.

Coastal Water Temperatures

Place Temperature

Stations

Nearby Weather Stations

Station Location Temp. Windchill Dew Point Humidity Wind Precip. Elev Updated Type